DeWitt, Michigan
Current Conditions -  °F | °C
As of 7:53 PM on Tuesday 21 Oct 2014 (Local Time) from KLAN Reporting Station
Clear Clear  
Wind Chill: 41°   Ceiling: Unl
Heat Index: 41°   Visibility: 10mi
Dew Point: 33°   Wind: 3mph
Humidity: 73%   Direction: 60°ENE
Pressure: 30.21"   Gusts: NA
Location:  42.84°N, 84.57°W
Report Text: KLAN 212353Z 06003KT 10SM CLR 05/01 A3021 RMK AO2 SLP234 T00500006 10083 20050 53018
Loading
Personal Weather Stations






























Interactive Weather Map
Tropical Storm Tracking
New forecast layout! Learn more

10-Day Weather Forecast

Advertisements
Track Severe Weather on mobile